sensor_id;sensor_type;location;lat;lon;timestamp;temperature;humidity
42097;DHT22;27754;45.414;11.084;2023-07-30T00:00:50;25.80;77.00
42097;DHT22;27754;45.414;11.084;2023-07-30T00:03:19;25.00;81.50
42097;DHT22;27754;45.414;11.084;2023-07-30T07:41:45;27.90;72.60
42097;DHT22;27754;45.414;11.084;2023-07-30T07:44:12;27.60;71.30
42097;DHT22;27754;45.414;11.084;2023-07-30T07:46:39;27.80;72.60
42097;DHT22;27754;45.414;11.084;2023-07-30T07:49:06;28.00;71.30
42097;DHT22;27754;45.414;11.084;2023-07-30T07:51:35;27.80;70.40
42097;DHT22;27754;45.414;11.084;2023-07-30T07:54:02;27.80;71.20
42097;DHT22;27754;45.414;11.084;2023-07-30T07:56:30;28.20;71.70
42097;DHT22;27754;45.414;11.084;2023-07-30T07:58:58;28.10;70.90
42097;DHT22;27754;45.414;11.084;2023-07-30T08:01:25;27.90;71.10
42097;DHT22;27754;45.414;11.084;2023-07-30T08:03:52;28.30;70.10
42097;DHT22;27754;45.414;11.084;2023-07-30T08:06:19;28.30;69.80
42097;DHT22;27754;45.414;11.084;2023-07-30T08:08:46;27.80;70.30
42097;DHT22;27754;45.414;11.084;2023-07-30T08:11:13;28.00;70.00
42097;DHT22;27754;45.414;11.084;2023-07-30T08:13:40;28.40;68.90
42097;DHT22;27754;45.414;11.084;2023-07-30T08:16:08;28.40;68.10
42097;DHT22;27754;45.414;11.084;2023-07-30T08:18:35;28.40;68.70
42097;DHT22;27754;45.414;11.084;2023-07-30T08:21:02;28.30;69.00
42097;DHT22;27754;45.414;11.084;2023-07-30T08:23:29;28.40;68.30
42097;DHT22;27754;45.414;11.084;2023-07-30T08:25:55;28.70;70.40
42097;DHT22;27754;45.414;11.084;2023-07-30T08:28:22;28.80;67.90
42097;DHT22;27754;45.414;11.084;2023-07-30T08:30:49;28.30;69.10
42097;DHT22;27754;45.414;11.084;2023-07-30T08:33:16;28.50;69.20
42097;DHT22;27754;45.414;11.084;2023-07-30T08:35:43;28.70;68.30
42097;DHT22;27754;45.414;11.084;2023-07-30T08:38:10;28.90;67.40
42097;DHT22;27754;45.414;11.084;2023-07-30T08:40:37;28.80;66.60
42097;DHT22;27754;45.414;11.084;2023-07-30T08:43:04;28.40;67.60
42097;DHT22;27754;45.414;11.084;2023-07-30T08:45:32;28.50;69.40
42097;DHT22;27754;45.414;11.084;2023-07-30T08:47:59;28.70;67.90
42097;DHT22;27754;45.414;11.084;2023-07-30T08:50:26;28.80;68.20
42097;DHT22;27754;45.414;11.084;2023-07-30T08:52:55;28.70;67.40
42097;DHT22;27754;45.414;11.084;2023-07-30T08:55:22;28.90;69.20
42097;DHT22;27754;45.414;11.084;2023-07-30T08:57:51;28.50;68.20
42097;DHT22;27754;45.414;11.084;2023-07-30T09:00:19;28.90;67.40
42097;DHT22;27754;45.414;11.084;2023-07-30T09:02:53;28.50;69.50
42097;DHT22;27754;45.414;11.084;2023-07-30T09:05:21;28.50;69.20
42097;DHT22;27754;45.414;11.084;2023-07-30T09:07:49;28.70;69.00
42097;DHT22;27754;45.414;11.084;2023-07-30T09:10:16;28.50;68.10
42097;DHT22;27754;45.414;11.084;2023-07-30T09:12:43;28.60;70.20
42097;DHT22;27754;45.414;11.084;2023-07-30T09:15:14;29.10;69.20
42097;DHT22;27754;45.414;11.084;2023-07-30T09:17:41;28.90;67.50
42097;DHT22;27754;45.414;11.084;2023-07-30T09:20:09;28.60;68.30
42097;DHT22;27754;45.414;11.084;2023-07-30T09:22:37;28.80;67.60
42097;DHT22;27754;45.414;11.084;2023-07-30T09:25:08;28.80;68.60
42097;DHT22;27754;45.414;11.084;2023-07-30T09:27:35;28.70;68.50
42097;DHT22;27754;45.414;11.084;2023-07-30T09:30:03;28.90;68.50
42097;DHT22;27754;45.414;11.084;2023-07-30T09:32:34;29.00;67.70
42097;DHT22;27754;45.414;11.084;2023-07-30T09:35:06;28.90;67.30
42097;DHT22;27754;45.414;11.084;2023-07-30T09:37:37;28.80;68.30
42097;DHT22;27754;45.414;11.084;2023-07-30T09:40:07;28.80;68.20
42097;DHT22;27754;45.414;11.084;2023-07-30T09:42:35;28.70;68.90
42097;DHT22;27754;45.414;11.084;2023-07-30T09:45:09;28.50;69.40
42097;DHT22;27754;45.414;11.084;2023-07-30T09:47:47;28.40;68.50
42097;DHT22;27754;45.414;11.084;2023-07-30T09:50:14;28.20;67.70
42097;DHT22;27754;45.414;11.084;2023-07-30T09:52:43;28.20;69.80
42097;DHT22;27754;45.414;11.084;2023-07-30T09:55:11;27.80;69.70
42097;DHT22;27754;45.414;11.084;2023-07-30T09:57:38;28.00;70.80
42097;DHT22;27754;45.414;11.084;2023-07-30T10:00:07;28.60;70.10
42097;DHT22;27754;45.414;11.084;2023-07-30T10:02:38;29.10;69.30
42097;DHT22;27754;45.414;11.084;2023-07-30T10:05:20;29.60;67.30
42097;DHT22;27754;45.414;11.084;2023-07-30T10:08:15;29.70;64.50
42097;DHT22;27754;45.414;11.084;2023-07-30T10:10:47;29.30;65.50
42097;DHT22;27754;45.414;11.084;2023-07-30T10:13:15;29.30;67.90
42097;DHT22;27754;45.414;11.084;2023-07-30T10:15:43;29.60;67.50
42097;DHT22;27754;45.414;11.084;2023-07-30T10:18:10;30.00;67.00
42097;DHT22;27754;45.414;11.084;2023-07-30T10:20:39;30.30;65.40
42097;DHT22;27754;45.414;11.084;2023-07-30T10:23:06;29.80;65.50
42097;DHT22;27754;45.414;11.084;2023-07-30T10:25:48;29.40;67.00
42097;DHT22;27754;45.414;11.084;2023-07-30T10:28:47;29.50;67.40
42097;DHT22;27754;45.414;11.084;2023-07-30T10:31:15;29.80;67.10
42097;DHT22;27754;45.414;11.084;2023-07-30T10:33:53;29.80;66.60
42097;DHT22;27754;45.414;11.084;2023-07-30T10:36:36;30.00;64.30
42097;DHT22;27754;45.414;11.084;2023-07-30T10:41:42;29.80;65.00
42097;DHT22;27754;45.414;11.084;2023-07-30T10:44:18;29.70;66.10
42097;DHT22;27754;45.414;11.084;2023-07-30T10:46:46;29.30;66.70
42097;DHT22;27754;45.414;11.084;2023-07-30T10:49:13;29.30;66.70
42097;DHT22;27754;45.414;11.084;2023-07-30T10:51:40;29.30;69.10
42097;DHT22;27754;45.414;11.084;2023-07-30T11:06:39;28.90;67.70
42097;DHT22;27754;45.414;11.084;2023-07-30T11:09:21;29.50;67.50
42097;DHT22;27754;45.414;11.084;2023-07-30T11:11:49;29.90;66.50
42097;DHT22;27754;45.414;11.084;2023-07-30T11:14:24;30.00;66.60
42097;DHT22;27754;45.414;11.084;2023-07-30T11:16:58;30.20;66.30
42097;DHT22;27754;45.414;11.084;2023-07-30T11:19:26;30.60;64.70
42097;DHT22;27754;45.414;11.084;2023-07-30T11:21:56;30.80;64.30
42097;DHT22;27754;45.414;11.084;2023-07-30T11:24:34;30.40;62.50
42097;DHT22;27754;45.414;11.084;2023-07-30T11:27:03;30.50;62.40
42097;DHT22;27754;45.414;11.084;2023-07-30T11:29:30;30.30;63.50
42097;DHT22;27754;45.414;11.084;2023-07-30T11:31:59;30.30;64.30
42097;DHT22;27754;45.414;11.084;2023-07-30T11:34:27;30.30;64.80
42097;DHT22;27754;45.414;11.084;2023-07-30T11:36:55;29.90;64.90
42097;DHT22;27754;45.414;11.084;2023-07-30T11:39:23;29.80;65.60
42097;DHT22;27754;45.414;11.084;2023-07-30T11:41:51;29.80;66.00
42097;DHT22;27754;45.414;11.084;2023-07-30T11:44:38;30.10;66.00
42097;DHT22;27754;45.414;11.084;2023-07-30T11:47:06;30.10;66.60
42097;DHT22;27754;45.414;11.084;2023-07-30T11:49:33;30.20;66.80
42097;DHT22;27754;45.414;11.084;2023-07-30T11:52:10;30.20;66.60
42097;DHT22;27754;45.414;11.084;2023-07-30T11:54:37;30.20;63.40
42097;DHT22;27754;45.414;11.084;2023-07-30T11:57:05;30.30;65.30
42097;DHT22;27754;45.414;11.084;2023-07-30T11:59:32;30.00;65.40
42097;DHT22;27754;45.414;11.084;2023-07-30T12:02:00;30.10;65.30
42097;DHT22;27754;45.414;11.084;2023-07-30T12:04:42;30.20;64.70
42097;DHT22;27754;45.414;11.084;2023-07-30T12:07:10;30.20;64.90
42097;DHT22;27754;45.414;11.084;2023-07-30T12:09:37;30.40;65.50
42097;DHT22;27754;45.414;11.084;2023-07-30T12:12:06;30.70;65.60
42097;DHT22;27754;45.414;11.084;2023-07-30T12:17:15;31.00;62.60
42097;DHT22;27754;45.414;11.084;2023-07-30T12:19:42;30.90;62.70
42097;DHT22;27754;45.414;11.084;2023-07-30T12:22:09;31.00;62.70
42097;DHT22;27754;45.414;11.084;2023-07-30T12:24:36;30.80;61.20
42097;DHT22;27754;45.414;11.084;2023-07-30T12:27:04;31.00;61.00
42097;DHT22;27754;45.414;11.084;2023-07-30T12:29:31;30.80;63.20
42097;DHT22;27754;45.414;11.084;2023-07-30T12:31:58;30.90;62.90
42097;DHT22;27754;45.414;11.084;2023-07-30T12:34:29;31.00;62.20
42097;DHT22;27754;45.414;11.084;2023-07-30T12:36:56;31.10;62.40
42097;DHT22;27754;45.414;11.084;2023-07-30T12:39:24;30.90;61.60
42097;DHT22;27754;45.414;11.084;2023-07-30T12:41:51;30.90;61.40
42097;DHT22;27754;45.414;11.084;2023-07-30T12:44:18;30.90;62.80
42097;DHT22;27754;45.414;11.084;2023-07-30T12:46:45;30.90;60.90
42097;DHT22;27754;45.414;11.084;2023-07-30T12:49:12;30.90;61.70
42097;DHT22;27754;45.414;11.084;2023-07-30T12:51:39;31.00;62.40
42097;DHT22;27754;45.414;11.084;2023-07-30T12:54:07;31.10;62.10
42097;DHT22;27754;45.414;11.084;2023-07-30T12:56:34;31.30;61.70
42097;DHT22;27754;45.414;11.084;2023-07-30T12:59:03;31.50;61.40
42097;DHT22;27754;45.414;11.084;2023-07-30T13:01:30;31.30;60.30
42097;DHT22;27754;45.414;11.084;2023-07-30T13:03:57;31.40;59.50
42097;DHT22;27754;45.414;11.084;2023-07-30T13:06:24;31.60;60.90
42097;DHT22;27754;45.414;11.084;2023-07-30T13:08:51;31.30;59.90
42097;DHT22;27754;45.414;11.084;2023-07-30T13:11:20;31.30;62.30
42097;DHT22;27754;45.414;11.084;2023-07-30T13:13:47;31.30;63.60
42097;DHT22;27754;45.414;11.084;2023-07-30T13:16:14;31.50;62.20
42097;DHT22;27754;45.414;11.084;2023-07-30T13:18:41;31.60;60.80
42097;DHT22;27754;45.414;11.084;2023-07-30T13:21:08;31.80;60.50
42097;DHT22;27754;45.414;11.084;2023-07-30T13:23:35;31.70;60.50
42097;DHT22;27754;45.414;11.084;2023-07-30T13:26:02;31.80;60.50
42097;DHT22;27754;45.414;11.084;2023-07-30T13:28:29;31.70;59.80
42097;DHT22;27754;45.414;11.084;2023-07-30T13:30:57;31.40;61.30
42097;DHT22;27754;45.414;11.084;2023-07-30T13:33:24;31.30;61.20
42097;DHT22;27754;45.414;11.084;2023-07-30T13:35:51;31.20;60.50
42097;DHT22;27754;45.414;11.084;2023-07-30T13:38:18;31.50;60.80
42097;DHT22;27754;45.414;11.084;2023-07-30T13:40:48;31.60;59.80
42097;DHT22;27754;45.414;11.084;2023-07-30T13:43:15;31.30;60.50
42097;DHT22;27754;45.414;11.084;2023-07-30T13:45:42;31.20;61.70
42097;DHT22;27754;45.414;11.084;2023-07-30T13:48:10;31.20;61.90
42097;DHT22;27754;45.414;11.084;2023-07-30T13:50:37;30.90;62.50
42097;DHT22;27754;45.414;11.084;2023-07-30T13:53:04;30.90;63.30
42097;DHT22;27754;45.414;11.084;2023-07-30T13:55:31;31.10;63.00
42097;DHT22;27754;45.414;11.084;2023-07-30T13:57:58;31.20;62.00
42097;DHT22;27754;45.414;11.084;2023-07-30T14:00:25;31.10;60.80
42097;DHT22;27754;45.414;11.084;2023-07-30T14:02:52;31.10;61.60
42097;DHT22;27754;45.414;11.084;2023-07-30T14:05:19;31.10;61.50
42097;DHT22;27754;45.414;11.084;2023-07-30T14:07:46;31.10;62.20
42097;DHT22;27754;45.414;11.084;2023-07-30T14:10:13;31.10;60.30
42097;DHT22;27754;45.414;11.084;2023-07-30T14:12:40;31.20;60.60
42097;DHT22;27754;45.414;11.084;2023-07-30T14:15:08;31.50;60.60
42097;DHT22;27754;45.414;11.084;2023-07-30T14:17:35;31.70;60.10
42097;DHT22;27754;45.414;11.084;2023-07-30T14:20:03;31.80;58.00
42097;DHT22;27754;45.414;11.084;2023-07-30T14:22:29;31.70;57.60
42097;DHT22;27754;45.414;11.084;2023-07-30T14:24:57;31.70;58.10
42097;DHT22;27754;45.414;11.084;2023-07-30T14:27:24;31.50;59.90
42097;DHT22;27754;45.414;11.084;2023-07-30T14:29:51;31.20;60.90
42097;DHT22;27754;45.414;11.084;2023-07-30T14:32:23;31.20;60.50
42097;DHT22;27754;45.414;11.084;2023-07-30T14:34:50;31.30;60.40
42097;DHT22;27754;45.414;11.084;2023-07-30T14:37:17;31.50;59.60
42097;DHT22;27754;45.414;11.084;2023-07-30T14:39:44;31.60;58.10
42097;DHT22;27754;45.414;11.084;2023-07-30T14:42:12;31.40;58.40
42097;DHT22;27754;45.414;11.084;2023-07-30T14:44:39;31.50;59.10
42097;DHT22;27754;45.414;11.084;2023-07-30T14:47:06;31.30;58.80
42097;DHT22;27754;45.414;11.084;2023-07-30T14:49:35;31.30;58.20
42097;DHT22;27754;45.414;11.084;2023-07-30T14:52:02;31.30;58.80
42097;DHT22;27754;45.414;11.084;2023-07-30T14:54:30;31.30;59.80
42097;DHT22;27754;45.414;11.084;2023-07-30T14:56:57;31.20;60.50
42097;DHT22;27754;45.414;11.084;2023-07-30T14:59:24;31.10;61.20
42097;DHT22;27754;45.414;11.084;2023-07-30T15:01:52;31.20;61.60
42097;DHT22;27754;45.414;11.084;2023-07-30T15:04:19;31.20;57.00
42097;DHT22;27754;45.414;11.084;2023-07-30T15:06:47;30.80;58.40
42097;DHT22;27754;45.414;11.084;2023-07-30T15:09:14;30.60;58.80
42097;DHT22;27754;45.414;11.084;2023-07-30T15:11:41;30.80;60.50
42097;DHT22;27754;45.414;11.084;2023-07-30T15:14:08;30.80;60.20
42097;DHT22;27754;45.414;11.084;2023-07-30T15:16:35;30.90;60.40
42097;DHT22;27754;45.414;11.084;2023-07-30T15:19:02;31.20;59.50
42097;DHT22;27754;45.414;11.084;2023-07-30T15:21:31;31.30;58.70
42097;DHT22;27754;45.414;11.084;2023-07-30T15:23:58;31.20;59.10
42097;DHT22;27754;45.414;11.084;2023-07-30T15:26:25;31.10;58.90
42097;DHT22;27754;45.414;11.084;2023-07-30T15:28:53;31.20;58.30
42097;DHT22;27754;45.414;11.084;2023-07-30T15:31:20;31.30;59.30
42097;DHT22;27754;45.414;11.084;2023-07-30T15:33:47;31.20;59.30
42097;DHT22;27754;45.414;11.084;2023-07-30T15:36:14;31.30;58.00
42097;DHT22;27754;45.414;11.084;2023-07-30T15:38:41;31.30;58.20
42097;DHT22;27754;45.414;11.084;2023-07-30T15:41:08;31.30;58.90
42097;DHT22;27754;45.414;11.084;2023-07-30T15:43:35;31.50;59.20
42097;DHT22;27754;45.414;11.084;2023-07-30T15:46:06;31.60;58.40
42097;DHT22;27754;45.414;11.084;2023-07-30T15:48:33;31.70;59.30
42097;DHT22;27754;45.414;11.084;2023-07-30T15:51:02;31.70;58.20
42097;DHT22;27754;45.414;11.084;2023-07-30T15:53:32;31.60;57.90
42097;DHT22;27754;45.414;11.084;2023-07-30T15:56:02;31.60;58.40
42097;DHT22;27754;45.414;11.084;2023-07-30T15:58:33;31.50;58.00
42097;DHT22;27754;45.414;11.084;2023-07-30T16:01:07;31.50;58.40
42097;DHT22;27754;45.414;11.084;2023-07-30T16:03:37;31.40;58.10
42097;DHT22;27754;45.414;11.084;2023-07-30T16:06:05;31.30;59.90
42097;DHT22;27754;45.414;11.084;2023-07-30T16:08:34;31.30;57.80
42097;DHT22;27754;45.414;11.084;2023-07-30T16:11:09;31.20;59.10
42097;DHT22;27754;45.414;11.084;2023-07-30T16:13:36;31.20;58.80
42097;DHT22;27754;45.414;11.084;2023-07-30T16:16:16;31.20;59.60
42097;DHT22;27754;45.414;11.084;2023-07-30T16:18:47;31.20;59.20
42097;DHT22;27754;45.414;11.084;2023-07-30T16:21:14;31.20;59.10
42097;DHT22;27754;45.414;11.084;2023-07-30T16:23:41;31.20;57.60
42097;DHT22;27754;45.414;11.084;2023-07-30T16:26:09;31.20;58.60
42097;DHT22;27754;45.414;11.084;2023-07-30T16:28:36;31.20;58.50
42097;DHT22;27754;45.414;11.084;2023-07-30T16:31:04;31.20;57.80
42097;DHT22;27754;45.414;11.084;2023-07-30T16:33:31;31.10;57.60
42097;DHT22;27754;45.414;11.084;2023-07-30T16:35:58;31.10;57.50
42097;DHT22;27754;45.414;11.084;2023-07-30T16:38:28;31.10;57.30
42097;DHT22;27754;45.414;11.084;2023-07-30T16:40:55;30.90;57.60
42097;DHT22;27754;45.414;11.084;2023-07-30T16:43:22;30.80;58.50
42097;DHT22;27754;45.414;11.084;2023-07-30T16:45:49;30.80;58.40
42097;DHT22;27754;45.414;11.084;2023-07-30T16:48:17;30.80;59.70
42097;DHT22;27754;45.414;11.084;2023-07-30T16:50:45;30.80;58.00
42097;DHT22;27754;45.414;11.084;2023-07-30T16:53:13;30.70;57.20
42097;DHT22;27754;45.414;11.084;2023-07-30T16:55:41;30.70;57.50
42097;DHT22;27754;45.414;11.084;2023-07-30T16:58:10;30.60;58.60
42097;DHT22;27754;45.414;11.084;2023-07-30T17:00:37;30.40;57.60
42097;DHT22;27754;45.414;11.084;2023-07-30T17:03:04;30.50;59.00
42097;DHT22;27754;45.414;11.084;2023-07-30T17:05:34;30.50;60.00
42097;DHT22;27754;45.414;11.084;2023-07-30T17:08:01;30.40;60.00
42097;DHT22;27754;45.414;11.084;2023-07-30T17:10:28;30.30;60.50
42097;DHT22;27754;45.414;11.084;2023-07-30T17:12:56;30.30;61.00
42097;DHT22;27754;45.414;11.084;2023-07-30T17:15:23;30.30;60.40
42097;DHT22;27754;45.414;11.084;2023-07-30T17:17:50;30.30;61.30
42097;DHT22;27754;45.414;11.084;2023-07-30T17:20:17;30.30;61.20
42097;DHT22;27754;45.414;11.084;2023-07-30T17:22:44;30.20;62.10
42097;DHT22;27754;45.414;11.084;2023-07-30T17:25:11;30.20;61.20
42097;DHT22;27754;45.414;11.084;2023-07-30T17:27:38;30.10;61.40
42097;DHT22;27754;45.414;11.084;2023-07-30T17:30:05;30.10;60.80
42097;DHT22;27754;45.414;11.084;2023-07-30T17:32:32;30.10;61.50
42097;DHT22;27754;45.414;11.084;2023-07-30T17:35:01;30.10;62.10
42097;DHT22;27754;45.414;11.084;2023-07-30T17:37:28;30.00;62.50
42097;DHT22;27754;45.414;11.084;2023-07-30T17:39:55;29.90;62.80
42097;DHT22;27754;45.414;11.084;2023-07-30T17:42:22;29.80;62.60
42097;DHT22;27754;45.414;11.084;2023-07-30T17:44:50;29.80;64.00
42097;DHT22;27754;45.414;11.084;2023-07-30T17:47:20;29.70;64.10
42097;DHT22;27754;45.414;11.084;2023-07-30T17:49:47;29.50;63.30
42097;DHT22;27754;45.414;11.084;2023-07-30T17:52:15;29.50;62.90
42097;DHT22;27754;45.414;11.084;2023-07-30T17:54:48;29.40;62.60
42097;DHT22;27754;45.414;11.084;2023-07-30T17:57:16;29.30;64.00
42097;DHT22;27754;45.414;11.084;2023-07-30T17:59:43;29.30;64.80
42097;DHT22;27754;45.414;11.084;2023-07-30T18:02:10;29.20;64.60
42097;DHT22;27754;45.414;11.084;2023-07-30T18:04:37;29.10;63.10
42097;DHT22;27754;45.414;11.084;2023-07-30T18:07:05;29.10;62.30
42097;DHT22;27754;45.414;11.084;2023-07-30T18:09:32;29.00;63.00
42097;DHT22;27754;45.414;11.084;2023-07-30T18:11:59;28.90;63.20
42097;DHT22;27754;45.414;11.084;2023-07-30T18:14:26;28.90;63.90
42097;DHT22;27754;45.414;11.084;2023-07-30T18:16:53;28.80;64.50
42097;DHT22;27754;45.414;11.084;2023-07-30T18:19:20;28.80;63.90
42097;DHT22;27754;45.414;11.084;2023-07-30T18:21:47;28.80;64.30
42097;DHT22;27754;45.414;11.084;2023-07-30T18:24:14;28.70;65.30
42097;DHT22;27754;45.414;11.084;2023-07-30T18:26:41;28.60;65.90
42097;DHT22;27754;45.414;11.084;2023-07-30T18:29:08;28.60;66.50
42097;DHT22;27754;45.414;11.084;2023-07-30T18:31:35;28.50;67.10
42097;DHT22;27754;45.414;11.084;2023-07-30T18:34:02;28.40;67.60
42097;DHT22;27754;45.414;11.084;2023-07-30T18:36:32;28.40;68.40
42097;DHT22;27754;45.414;11.084;2023-07-30T18:38:59;28.30;69.00
42097;DHT22;27754;45.414;11.084;2023-07-30T18:41:26;28.20;69.60
42097;DHT22;27754;45.414;11.084;2023-07-30T18:43:53;28.10;70.00
42097;DHT22;27754;45.414;11.084;2023-07-30T18:46:20;28.10;69.80
42097;DHT22;27754;45.414;11.084;2023-07-30T18:48:47;28.00;70.00
42097;DHT22;27754;45.414;11.084;2023-07-30T18:51:15;27.90;70.60
42097;DHT22;27754;45.414;11.084;2023-07-30T18:53:41;27.80;70.90
42097;DHT22;27754;45.414;11.084;2023-07-30T18:56:08;27.80;71.00
42097;DHT22;27754;45.414;11.084;2023-07-30T18:58:35;27.70;71.30
42097;DHT22;27754;45.414;11.084;2023-07-30T19:01:02;27.60;71.60
42097;DHT22;27754;45.414;11.084;2023-07-30T19:03:30;27.60;72.00
42097;DHT22;27754;45.414;11.084;2023-07-30T19:05:57;27.40;72.30
42097;DHT22;27754;45.414;11.084;2023-07-30T19:08:24;27.30;72.40
42097;DHT22;27754;45.414;11.084;2023-07-30T19:10:52;27.20;72.40
42097;DHT22;27754;45.414;11.084;2023-07-30T19:13:19;27.10;72.20
42097;DHT22;27754;45.414;11.084;2023-07-30T19:15:46;27.00;71.80
42097;DHT22;27754;45.414;11.084;2023-07-30T19:18:13;26.90;71.90
42097;DHT22;27754;45.414;11.084;2023-07-30T19:20:40;26.80;72.30
42097;DHT22;27754;45.414;11.084;2023-07-30T19:23:07;26.80;72.80
42097;DHT22;27754;45.414;11.084;2023-07-30T19:25:34;26.80;73.20
42097;DHT22;27754;45.414;11.084;2023-07-30T19:28:02;26.70;73.60
42097;DHT22;27754;45.414;11.084;2023-07-30T19:30:32;26.70;74.70
42097;DHT22;27754;45.414;11.084;2023-07-30T19:33:00;26.50;75.30
42097;DHT22;27754;45.414;11.084;2023-07-30T19:35:27;26.40;76.10
42097;DHT22;27754;45.414;11.084;2023-07-30T19:38:11;26.20;76.90
42097;DHT22;27754;45.414;11.084;2023-07-30T19:40:38;26.20;77.50
42097;DHT22;27754;45.414;11.084;2023-07-30T19:43:05;26.20;78.10
42097;DHT22;27754;45.414;11.084;2023-07-30T19:45:31;26.00;78.30
42097;DHT22;27754;45.414;11.084;2023-07-30T19:47:59;25.90;78.40
42097;DHT22;27754;45.414;11.084;2023-07-30T19:50:26;25.90;78.50
42097;DHT22;27754;45.414;11.084;2023-07-30T19:53:10;25.80;78.00
42097;DHT22;27754;45.414;11.084;2023-07-30T19:55:37;25.80;78.10
42097;DHT22;27754;45.414;11.084;2023-07-30T19:58:28;25.80;77.90
42097;DHT22;27754;45.414;11.084;2023-07-30T20:00:56;25.80;77.90
42097;DHT22;27754;45.414;11.084;2023-07-30T20:03:24;25.80;77.80
42097;DHT22;27754;45.414;11.084;2023-07-30T20:05:51;25.80;77.80
42097;DHT22;27754;45.414;11.084;2023-07-30T20:08:18;25.70;77.80
42097;DHT22;27754;45.414;11.084;2023-07-30T20:10:45;25.70;77.30
42097;DHT22;27754;45.414;11.084;2023-07-30T20:13:12;25.80;76.70
42097;DHT22;27754;45.414;11.084;2023-07-30T20:15:39;25.80;76.40
42097;DHT22;27754;45.414;11.084;2023-07-30T20:18:06;25.80;76.30
42097;DHT22;27754;45.414;11.084;2023-07-30T20:20:33;25.80;76.20
42097;DHT22;27754;45.414;11.084;2023-07-30T20:23:01;25.80;76.60
42097;DHT22;27754;45.414;11.084;2023-07-30T20:25:35;25.80;76.60
42097;DHT22;27754;45.414;11.084;2023-07-30T20:28:04;25.70;76.80
42097;DHT22;27754;45.414;11.084;2023-07-30T20:30:33;25.70;77.00
42097;DHT22;27754;45.414;11.084;2023-07-30T20:33:01;25.70;77.10
42097;DHT22;27754;45.414;11.084;2023-07-30T20:35:28;25.60;77.50
42097;DHT22;27754;45.414;11.084;2023-07-30T20:37:55;25.70;77.60
42097;DHT22;27754;45.414;11.084;2023-07-30T20:40:26;25.60;77.80
42097;DHT22;27754;45.414;11.084;2023-07-30T20:42:54;25.70;77.50
42097;DHT22;27754;45.414;11.084;2023-07-30T20:45:22;25.70;77.70
42097;DHT22;27754;45.414;11.084;2023-07-30T20:47:52;25.70;77.70
42097;DHT22;27754;45.414;11.084;2023-07-30T20:50:20;25.70;77.70
42097;DHT22;27754;45.414;11.084;2023-07-30T20:52:47;25.70;77.80
42097;DHT22;27754;45.414;11.084;2023-07-30T20:55:16;25.50;78.30
42097;DHT22;27754;45.414;11.084;2023-07-30T20:57:44;25.40;78.70
42097;DHT22;27754;45.414;11.084;2023-07-30T21:00:12;25.40;78.90
42097;DHT22;27754;45.414;11.084;2023-07-30T21:02:39;25.20;79.50
42097;DHT22;27754;45.414;11.084;2023-07-30T21:05:07;25.20;80.10
42097;DHT22;27754;45.414;11.084;2023-07-30T21:07:35;25.10;80.20
42097;DHT22;27754;45.414;11.084;2023-07-30T21:10:03;25.00;80.60
42097;DHT22;27754;45.414;11.084;2023-07-30T21:12:31;25.00;81.10
42097;DHT22;27754;45.414;11.084;2023-07-30T21:14:58;25.00;81.00
42097;DHT22;27754;45.414;11.084;2023-07-30T21:17:30;25.00;81.00
42097;DHT22;27754;45.414;11.084;2023-07-30T21:19:57;25.00;80.40
42097;DHT22;27754;45.414;11.084;2023-07-30T21:22:24;25.00;80.00
42097;DHT22;27754;45.414;11.084;2023-07-30T21:24:52;25.10;80.00
42097;DHT22;27754;45.414;11.084;2023-07-30T21:27:19;25.10;79.80
42097;DHT22;27754;45.414;11.084;2023-07-30T21:29:46;25.10;79.00
42097;DHT22;27754;45.414;11.084;2023-07-30T21:32:13;25.10;78.40
42097;DHT22;27754;45.414;11.084;2023-07-30T21:34:41;25.20;77.80
42097;DHT22;27754;45.414;11.084;2023-07-30T21:37:08;25.20;77.80
42097;DHT22;27754;45.414;11.084;2023-07-30T21:39:36;25.20;77.50
42097;DHT22;27754;45.414;11.084;2023-07-30T21:42:03;25.30;77.40
42097;DHT22;27754;45.414;11.084;2023-07-30T21:44:32;25.30;77.40
42097;DHT22;27754;45.414;11.084;2023-07-30T21:46:59;25.30;77.40
42097;DHT22;27754;45.414;11.084;2023-07-30T21:49:28;25.30;77.50
42097;DHT22;27754;45.414;11.084;2023-07-30T21:51:55;25.30;77.90
42097;DHT22;27754;45.414;11.084;2023-07-30T21:54:23;25.30;77.80
42097;DHT22;27754;45.414;11.084;2023-07-30T21:56:50;25.30;77.90
42097;DHT22;27754;45.414;11.084;2023-07-30T21:59:17;25.30;78.10
42097;DHT22;27754;45.414;11.084;2023-07-30T22:01:44;25.30;78.20
42097;DHT22;27754;45.414;11.084;2023-07-30T22:04:11;25.30;78.20
42097;DHT22;27754;45.414;11.084;2023-07-30T22:06:38;25.30;78.10
42097;DHT22;27754;45.414;11.084;2023-07-30T22:09:05;25.30;78.30
42097;DHT22;27754;45.414;11.084;2023-07-30T22:11:32;25.30;78.40
42097;DHT22;27754;45.414;11.084;2023-07-30T22:13:59;25.20;78.50
42097;DHT22;27754;45.414;11.084;2023-07-30T22:16:26;25.20;78.70
42097;DHT22;27754;45.414;11.084;2023-07-30T22:18:53;25.10;78.80
42097;DHT22;27754;45.414;11.084;2023-07-30T22:21:20;25.10;78.90
42097;DHT22;27754;45.414;11.084;2023-07-30T22:23:47;25.10;79.10
42097;DHT22;27754;45.414;11.084;2023-07-30T22:26:14;25.00;79.10
42097;DHT22;27754;45.414;11.084;2023-07-30T22:28:41;25.00;79.30
42097;DHT22;27754;45.414;11.084;2023-07-30T22:31:08;25.00;79.40
42097;DHT22;27754;45.414;11.084;2023-07-30T22:33:35;24.90;79.60
42097;DHT22;27754;45.414;11.084;2023-07-30T22:36:02;24.90;79.60
42097;DHT22;27754;45.414;11.084;2023-07-30T22:38:30;24.90;79.40
42097;DHT22;27754;45.414;11.084;2023-07-30T22:40:57;24.90;79.70
42097;DHT22;27754;45.414;11.084;2023-07-30T22:43:24;24.90;79.70
42097;DHT22;27754;45.414;11.084;2023-07-30T22:45:51;24.90;79.80
42097;DHT22;27754;45.414;11.084;2023-07-30T22:48:18;24.90;79.80
42097;DHT22;27754;45.414;11.084;2023-07-30T22:50:45;24.80;79.80
42097;DHT22;27754;45.414;11.084;2023-07-30T22:53:12;24.80;79.90
42097;DHT22;27754;45.414;11.084;2023-07-30T22:55:39;24.80;79.90
42097;DHT22;27754;45.414;11.084;2023-07-30T22:58:08;24.80;79.90
42097;DHT22;27754;45.414;11.084;2023-07-30T23:00:35;24.70;80.10
42097;DHT22;27754;45.414;11.084;2023-07-30T23:03:02;24.70;80.00
42097;DHT22;27754;45.414;11.084;2023-07-30T23:05:29;24.70;79.80
42097;DHT22;27754;45.414;11.084;2023-07-30T23:07:56;24.80;79.80
42097;DHT22;27754;45.414;11.084;2023-07-30T23:10:23;24.80;79.90
42097;DHT22;27754;45.414;11.084;2023-07-30T23:12:50;24.80;79.70
42097;DHT22;27754;45.414;11.084;2023-07-30T23:15:17;24.80;79.70